Arab, MO

6:15 PM CST on February 01, 2015 (GMT -0600)
RAWS PIEDMONT MO US | Change Station
CLOSE
Current Station
Personal Weather Station
Location: Cascade, MO
Elevation: 839 ft
Nearby Weather Stations

Elev 839 ft 37.24 °N, 90.27 °W | Updated 45 minutes ago

Overcast
Overcast
45 °F
Feels Like 39 °F
N
12
Wind Variable Wind from WNW
Gusts 23.0 mph

Today
High -- | Low -- °F
--% Chance of Precip.
Yesterday
High -- | Low -- °F
Precip. -- in
7:03 AM 5:24 PM
Waxing Gibbous, 96% visible
Pressure 29.75 in
Visibility 10.0 miles
Clouds Mostly Cloudy 2300 ft
Overcast 3900 ft
Windchill 39 °F
Dew Point 40 °F
Humidity 82%
Rainfall 0.60 in
Snow Depth Not available.
UV 0 out of 12
Pollen .30 out of 12
Air Quality Not available.
Flu Activity Not available.
METAR KPOF 012353Z AUTO 29017G22KT 10SM BKN023 OVC039 07/03 A2974 RMK AO2 PK WND 29030/2335 PRESRR SLP075 60001 T00720028 10106 20072 51025

More Conditions Fewer Conditions

Pressure 29.75 in
Visibility 10.0 miles
Clouds Mostly Cloudy 2300 ft
Overcast 3900 ft
Windchill 39 °F
Dew Point 40 °F
Humidity 82%
Rainfall 0.60 in
Snow Depth Not available.
UV 0 out of 12
Pollen .30 out of 12
Air Quality Not available.
Flu Activity Not available.
METAR KPOF 012353Z AUTO 29017G22KT 10SM BKN023 OVC039 07/03 A2974 RMK AO2 PK WND 29030/2335 PRESRR SLP075 60001 T00720028 10106 20072 51025

More Conditions Fewer Conditions

10-Day Weather Forecast

Almanac

Astronomy

Feb. 01, 2015 Rise Set
Actual Time
Civil Twilight
Nautical Twilight
Astronomical Twilight
Moon
Length of Visible Light
Length of Day
Tomorrow will be .
, % of the Moon is Illuminated

Today's Extremes

State Highs State Lows

Community

WunderPhotos

Upload Photos

1,792,619 photos uploaded!

WunderBlogs® & News

Nearby

Air Quality

  Air Quality AQ Index Pollutant
Not available.

Snow Depth

Station Depth Elevation

Earthquake Activity

City Distance Mag. Time & Date
Minimum magnitude displayed is 2.5.

Coastal Water Temperatures

Place Temperature

Nearby Weather Stations